Terminal Aerodrome Forecast
Issued by NWS Lake Charles, LA

Home | Current Version | Previous Version | Text Only | Print | Product List | Glossary On
Versions: 1 2 3 4 5 6 7 8 9 10 11 12 13 14 15 16
000
FTUS44 KLCH 260535
TAFBPT
TAF
KBPT 260535Z 2606/2706 05006KT P6SM FEW100 BKN200
     FM261000 VRB03KT P6SM VCSH FEW015 SCT030
     FM261500 07008KT P6SM VCTS FEW020CB SCT035
     FM261800 10007KT P6SM VCTS FEW025CB SCT035 PROB30 2619/2623 4SM
      TSRA SCT015 BKN025CB
     FM270100 02005KT P6SM FEW050 BKN150=

USA.gov is the U.S. government's official web portal to all federal, state and local government web resources and services.